Flight Track Log - Related Links

Times and Time Zones

All times are in EST time to prevent confusion due to time zone crossing. See the BWA446 flight status page for this flight to view local times or setup timezone preferences in your user account.

Time Position Orientation Groundspeed Altitude Reporting Facility
EST Latitude Longitude Course Direction KTS MPH feet Rate Location/Type
Mon 06:47:49 PM 10.7580 -61.2175 36° Northeast  Level Estimated
Mon 06:48:49 PM 10.8158 -61.1749 36° Northeast  Level Estimated
Mon 06:49:49 PM 10.8735 -61.1323 36° Northeast  Level Estimated
Mon 06:50:49 PM 10.9312 -61.0897 36° Northeast  Level Estimated
Mon 06:51:49 PM 10.9889 -61.0471 36° Northeast  Level Estimated
Mon 06:52:49 PM 11.0466 -61.0045 36° Northeast  Level Estimated
Mon 06:53:49 PM 11.1043 -60.9619 36° Northeast  Level Estimated
Mon 06:54:49 PM 11.1620 -60.9192 36° Northeast  Level Estimated
Mon 06:55:49 PM 11.2197 -60.8766 36° Northeast  Level Estimated
Mon 06:56:49 PM 11.2774 -60.8339 36° Northeast  Level Estimated
Mon 06:57:49 PM 11.3351 -60.7912 36° Northeast  Level Estimated
Mon 06:58:49 PM 11.3928 -60.7485 36° Northeast  Level Estimated
Mon 06:59:49 PM 11.4504 -60.7057 36° Northeast  Level Estimated
Mon 07:00:49 PM 11.5081 -60.6629 36° Northeast  Level Estimated
Mon 07:01:49 PM 11.5658 -60.6202 36° Northeast  Level Estimated
Mon 07:02:49 PM 11.6234 -60.5774 36° Northeast  Level Estimated
Mon 07:03:49 PM 11.6811 -60.5346 36° Northeast  Level Estimated
Mon 07:04:49 PM 11.7387 -60.4917 36° Northeast  Level Estimated
Mon 07:05:49 PM 11.7963 -60.4489 36° Northeast  Level Estimated
Mon 07:06:49 PM 11.8539 -60.4060 36° Northeast  Level Estimated
Mon 07:07:49 PM 11.9116 -60.3631 36° Northeast  Level Estimated
Mon 07:08:49 PM 11.9692 -60.3202 36° Northeast  Level Estimated
Mon 07:09:49 PM 12.0268 -60.2773 36° Northeast  Level Estimated
Mon 07:10:49 PM 12.0844 -60.2344 36° Northeast  Level Estimated
Mon 07:11:49 PM 12.1420 -60.1914 36° Northeast  Level Estimated
Mon 07:12:49 PM 12.1996 -60.1484 36° Northeast  Level Estimated
Mon 07:13:49 PM 12.2571 -60.1055 36° Northeast  Level Estimated
Mon 07:14:49 PM 12.3147 -60.0625 36° Northeast  Level Estimated
Mon 07:15:49 PM 12.3723 -60.0194 36° Northeast  Level Estimated
Mon 07:16:49 PM 12.4298 -59.9764 36° Northeast  Level Estimated
Mon 07:17:49 PM 12.4874 -59.9333 36° Northeast  Level Estimated
Mon 07:18:49 PM 12.5449 -59.8902 36° Northeast  Level Estimated
Mon 07:19:49 PM 12.6025 -59.8471 36° Northeast  Level Estimated
Mon 07:20:49 PM 12.6600 -59.8040 36° Northeast  Level Estimated
Mon 07:21:49 PM 12.7175 -59.7608 36° Northeast  Level Estimated
Mon 07:22:49 PM 12.7751 -59.7177 36° Northeast  Level Estimated
Mon 07:23:49 PM 12.8326 -59.6745 36° Northeast  Level Estimated
Mon 07:24:49 PM 12.8901 -59.6313 36° Northeast  Level Estimated
Mon 07:25:49 PM 12.9476 -59.5881 36° Northeast  Level Estimated
Mon 07:26:49 PM 13.0050 -59.5448 36° Northeast  Level Estimated
Mon 07:27:49 PM 13.0625 -59.5015 36° Northeast  Level Estimated
Mon 07:28:49 PM 13.1200 -59.4583 216° Southwest  Level Estimated
Mon 07:29:49 PM 13.0625 -59.5015 36° Northeast  Level Estimated
Mon 07:30:49 PM 13.1200 -59.4583 216° Southwest  Level Estimated
Mon 07:31:49 PM 13.0625 -59.5015 36° Northeast  Level Estimated
Mon 07:32:49 PM 13.1200 -59.4583 216° Southwest  Level Estimated
Mon 07:33:49 PM 13.0625 -59.5015 36° Northeast  Level Estimated
Mon 07:34:49 PM 13.1200 -59.4583 216° Southwest  Level Estimated
Mon 07:35:49 PM 13.0625 -59.5015 36° Northeast  Level Estimated
Mon 07:36:49 PM 13.1200 -59.4583 216° Southwest  Level Estimated
Mon 07:37:49 PM 13.0625 -59.5015 36° Northeast  Level Estimated
Mon 07:38:49 PM 13.1200 -59.4583 216° Southwest  Level Estimated
Mon 07:39:49 PM 13.0625 -59.5015 36° Northeast  Level Estimated
Mon 07:40:49 PM 13.1200 -59.4583 216° Southwest  Level Estimated
Mon 07:41:49 PM 13.0625 -59.5015 36° Northeast  Level Estimated
Mon 07:42:49 PM 13.1200 -59.4583 216° Southwest  Level Estimated
Mon 07:43:49 PM 13.0625 -59.5015 216° Southwest  Level Estimated

Login

Don't have an account? Register now (free) for customized features, flight alerts, and more!